sensor_id;sensor_type;location;lat;lon;timestamp;pressure;altitude;pressure_sealevel;temperature;humidity
39891;BME280;25564;53.312;9.790;2024-03-06T00:02:28;101614.00;;;0.14;70.25
39891;BME280;25564;53.312;9.790;2024-03-06T00:05:00;101612.25;;;0.14;70.03
39891;BME280;25564;53.312;9.790;2024-03-06T00:07:38;101615.75;;;0.12;69.90
39891;BME280;25564;53.312;9.790;2024-03-06T00:10:10;101619.91;;;0.14;69.86
39891;BME280;25564;53.312;9.790;2024-03-06T00:12:42;101621.50;;;0.18;70.22
39891;BME280;25564;53.312;9.790;2024-03-06T00:15:14;101619.81;;;0.19;70.11
39891;BME280;25564;53.312;9.790;2024-03-06T00:17:45;101617.34;;;0.16;70.38
39891;BME280;25564;53.312;9.790;2024-03-06T00:20:21;101618.28;;;0.12;69.73
39891;BME280;25564;53.312;9.790;2024-03-06T00:22:53;101621.88;;;0.03;69.78
39891;BME280;25564;53.312;9.790;2024-03-06T00:25:25;101622.84;;;-0.02;70.00
39891;BME280;25564;53.312;9.790;2024-03-06T00:27:56;101630.50;;;-0.02;70.29
39891;BME280;25564;53.312;9.790;2024-03-06T00:30:28;101626.19;;;-0.00;70.23
39891;BME280;25564;53.312;9.790;2024-03-06T00:33:00;101631.28;;;-0.00;70.61
39891;BME280;25564;53.312;9.790;2024-03-06T00:35:31;101623.66;;;-0.00;70.47
39891;BME280;25564;53.312;9.790;2024-03-06T00:38:03;101622.03;;;-0.03;70.16
39891;BME280;25564;53.312;9.790;2024-03-06T00:40:35;101631.53;;;-0.10;70.50
39891;BME280;25564;53.312;9.790;2024-03-06T00:43:07;101630.88;;;-0.19;70.21
39891;BME280;25564;53.312;9.790;2024-03-06T00:45:39;101637.81;;;-0.26;70.20
39891;BME280;25564;53.312;9.790;2024-03-06T00:48:10;101635.38;;;-0.32;70.55
39891;BME280;25564;53.312;9.790;2024-03-06T00:50:42;101637.94;;;-0.30;71.02
39891;BME280;25564;53.312;9.790;2024-03-06T00:53:14;101642.09;;;-0.26;70.68
39891;BME280;25564;53.312;9.790;2024-03-06T00:55:46;101637.78;;;-0.24;71.12
39891;BME280;25564;53.312;9.790;2024-03-06T00:58:19;101637.78;;;-0.24;70.91
39891;BME280;25564;53.312;9.790;2024-03-06T01:00:51;101644.50;;;-0.20;70.89
39891;BME280;25564;53.312;9.790;2024-03-06T01:03:22;101639.41;;;-0.22;70.49
39891;BME280;25564;53.312;9.790;2024-03-06T01:05:54;101637.78;;;-0.24;71.22
39891;BME280;25564;53.312;9.790;2024-03-06T01:08:27;101647.16;;;-0.25;70.99
39891;BME280;25564;53.312;9.790;2024-03-06T01:10:58;101648.09;;;-0.29;71.28
39891;BME280;25564;53.312;9.790;2024-03-06T01:13:30;101643.84;;;-0.30;71.44
39891;BME280;25564;53.312;9.790;2024-03-06T01:16:02;101654.97;;;-0.34;71.17
39891;BME280;25564;53.312;9.790;2024-03-06T01:18:35;101653.22;;;-0.32;70.67
39891;BME280;25564;53.312;9.790;2024-03-06T01:21:08;101652.38;;;-0.31;71.41
39891;BME280;25564;53.312;9.790;2024-03-06T01:23:40;101659.94;;;-0.26;71.38
39891;BME280;25564;53.312;9.790;2024-03-06T01:26:12;101655.66;;;-0.26;71.11
39891;BME280;25564;53.312;9.790;2024-03-06T01:28:44;101661.53;;;-0.22;71.11
39891;BME280;25564;53.312;9.790;2024-03-06T01:31:17;101660.69;;;-0.23;71.23
39891;BME280;25564;53.312;9.790;2024-03-06T01:33:48;101657.34;;;-0.25;71.51
39891;BME280;25564;53.312;9.790;2024-03-06T01:36:20;101660.84;;;-0.29;71.15
39891;BME280;25564;53.312;9.790;2024-03-06T01:38:51;101666.81;;;-0.31;70.85
39891;BME280;25564;53.312;9.790;2024-03-06T01:41:23;101663.47;;;-0.33;71.74
39891;BME280;25564;53.312;9.790;2024-03-06T01:43:55;101667.72;;;-0.34;71.47
39891;BME280;25564;53.312;9.790;2024-03-06T01:46:27;101668.56;;;-0.33;71.54
39891;BME280;25564;53.312;9.790;2024-03-06T01:48:59;101680.44;;;-0.32;71.67
39891;BME280;25564;53.312;9.790;2024-03-06T01:51:35;101680.41;;;-0.31;71.19
39891;BME280;25564;53.312;9.790;2024-03-06T01:54:09;101672.78;;;-0.31;71.38
39891;BME280;25564;53.312;9.790;2024-03-06T01:56:46;101677.78;;;-0.28;71.29
39891;BME280;25564;53.312;9.790;2024-03-06T01:59:21;101680.31;;;-0.26;71.42
39891;BME280;25564;53.312;9.790;2024-03-06T02:02:07;101683.81;;;-0.30;71.73
39891;BME280;25564;53.312;9.790;2024-03-06T02:04:41;101684.63;;;-0.30;72.00
39891;BME280;25564;53.312;9.790;2024-03-06T02:07:13;101686.31;;;-0.29;72.00
39891;BME280;25564;53.312;9.790;2024-03-06T02:09:47;101688.91;;;-0.30;71.57
39891;BME280;25564;53.312;9.790;2024-03-06T02:12:20;101688.97;;;-0.33;72.04
39891;BME280;25564;53.312;9.790;2024-03-06T02:14:52;101691.59;;;-0.38;72.07
39891;BME280;25564;53.312;9.790;2024-03-06T02:17:23;101686.56;;;-0.41;72.39
39891;BME280;25564;53.312;9.790;2024-03-06T02:19:58;101685.78;;;-0.44;72.20
39891;BME280;25564;53.312;9.790;2024-03-06T02:22:29;101676.38;;;-0.41;72.44
39891;BME280;25564;53.312;9.790;2024-03-06T02:25:01;101688.31;;;-0.43;72.28
39891;BME280;25564;53.312;9.790;2024-03-06T02:27:35;101675.59;;;-0.44;72.06
39891;BME280;25564;53.312;9.790;2024-03-06T02:30:07;101676.47;;;-0.47;72.42
39891;BME280;25564;53.312;9.790;2024-03-06T02:32:39;101676.47;;;-0.47;71.84
39891;BME280;25564;53.312;9.790;2024-03-06T02:35:11;101675.56;;;-0.43;71.89
39891;BME280;25564;53.312;9.790;2024-03-06T02:37:46;101672.09;;;-0.40;72.75
39891;BME280;25564;53.312;9.790;2024-03-06T02:40:17;101675.44;;;-0.38;72.68
39891;BME280;25564;53.312;9.790;2024-03-06T02:42:50;101678.84;;;-0.38;72.31
39891;BME280;25564;53.312;9.790;2024-03-06T02:45:22;101675.38;;;-0.34;72.09
39891;BME280;25564;53.312;9.790;2024-03-06T02:47:53;101675.28;;;-0.29;72.24
39891;BME280;25564;53.312;9.790;2024-03-06T02:50:25;101675.31;;;-0.31;72.01
39891;BME280;25564;53.312;9.790;2024-03-06T02:52:57;101682.06;;;-0.30;72.38
39891;BME280;25564;53.312;9.790;2024-03-06T02:55:30;101686.38;;;-0.32;72.05
39891;BME280;25564;53.312;9.790;2024-03-06T02:58:02;101682.16;;;-0.33;72.28
39891;BME280;25564;53.312;9.790;2024-03-06T03:00:34;101686.38;;;-0.32;72.71
39891;BME280;25564;53.312;9.790;2024-03-06T03:03:05;101687.97;;;-0.28;72.64
39891;BME280;25564;53.312;9.790;2024-03-06T03:05:39;101676.97;;;-0.30;72.53
39891;BME280;25564;53.312;9.790;2024-03-06T03:08:10;101688.84;;;-0.27;72.54
39891;BME280;25564;53.312;9.790;2024-03-06T03:10:42;101687.16;;;-0.28;72.70
39891;BME280;25564;53.312;9.790;2024-03-06T03:13:14;101689.72;;;-0.28;72.57
39891;BME280;25564;53.312;9.790;2024-03-06T03:15:46;101696.47;;;-0.27;72.89
39891;BME280;25564;53.312;9.790;2024-03-06T03:18:18;101694.81;;;-0.30;72.99
39891;BME280;25564;53.312;9.790;2024-03-06T03:20:50;101696.53;;;-0.29;72.60
39891;BME280;25564;53.312;9.790;2024-03-06T03:23:21;101698.19;;;-0.26;73.01
39891;BME280;25564;53.312;9.790;2024-03-06T03:25:57;101707.53;;;-0.27;72.93
39891;BME280;25564;53.312;9.790;2024-03-06T03:28:28;101705.81;;;-0.26;73.11
39891;BME280;25564;53.312;9.790;2024-03-06T03:31:00;101710.00;;;-0.24;72.89
39891;BME280;25564;53.312;9.790;2024-03-06T03:33:36;101700.72;;;-0.26;72.96
39891;BME280;25564;53.312;9.790;2024-03-06T03:36:10;101699.97;;;-0.31;72.92
39891;BME280;25564;53.312;9.790;2024-03-06T03:38:42;101708.47;;;-0.31;73.31
39891;BME280;25564;53.312;9.790;2024-03-06T03:41:14;101710.16;;;-0.31;72.78
39891;BME280;25564;53.312;9.790;2024-03-06T03:43:45;101701.66;;;-0.32;72.86
39891;BME280;25564;53.312;9.790;2024-03-06T03:46:17;101706.75;;;-0.32;73.45
39891;BME280;25564;53.312;9.790;2024-03-06T03:48:49;101704.31;;;-0.36;73.38
39891;BME280;25564;53.312;9.790;2024-03-06T03:51:21;101707.78;;;-0.40;73.58
39891;BME280;25564;53.312;9.790;2024-03-06T03:53:52;101705.31;;;-0.43;73.27
39891;BME280;25564;53.312;9.790;2024-03-06T03:56:24;101714.63;;;-0.42;73.05
39891;BME280;25564;53.312;9.790;2024-03-06T03:58:58;101712.16;;;-0.47;73.43
39891;BME280;25564;53.312;9.790;2024-03-06T04:01:29;101707.16;;;-0.51;73.64
39891;BME280;25564;53.312;9.790;2024-03-06T04:04:01;101713.97;;;-0.52;73.27
39891;BME280;25564;53.312;9.790;2024-03-06T04:06:34;101707.25;;;-0.56;73.33
39891;BME280;25564;53.312;9.790;2024-03-06T04:09:08;101718.31;;;-0.57;73.80
39891;BME280;25564;53.312;9.790;2024-03-06T04:11:41;101712.41;;;-0.59;73.70
39891;BME280;25564;53.312;9.790;2024-03-06T04:14:13;101714.09;;;-0.58;73.92
39891;BME280;25564;53.312;9.790;2024-03-06T04:16:46;101709.81;;;-0.56;73.34
39891;BME280;25564;53.312;9.790;2024-03-06T04:19:18;101715.63;;;-0.51;73.46
39891;BME280;25564;53.312;9.790;2024-03-06T04:21:50;101724.16;;;-0.52;73.65
39891;BME280;25564;53.312;9.790;2024-03-06T04:24:23;101715.63;;;-0.51;73.54
39891;BME280;25564;53.312;9.790;2024-03-06T04:26:55;101721.63;;;-0.52;73.38
39891;BME280;25564;53.312;9.790;2024-03-06T04:29:28;101723.22;;;-0.48;73.93
39891;BME280;25564;53.312;9.790;2024-03-06T04:32:00;101731.69;;;-0.46;73.51
39891;BME280;25564;53.312;9.790;2024-03-06T04:34:31;101729.09;;;-0.43;73.33
39891;BME280;25564;53.312;9.790;2024-03-06T04:37:03;101735.00;;;-0.41;73.66
39891;BME280;25564;53.312;9.790;2024-03-06T04:39:34;101737.56;;;-0.41;73.96
39891;BME280;25564;53.312;9.790;2024-03-06T04:42:06;101732.38;;;-0.38;73.93
39891;BME280;25564;53.312;9.790;2024-03-06T04:44:37;101731.44;;;-0.34;73.53
39891;BME280;25564;53.312;9.790;2024-03-06T04:47:09;101727.22;;;-0.35;73.55
39891;BME280;25564;53.312;9.790;2024-03-06T04:49:41;101724.56;;;-0.29;73.77
39891;BME280;25564;53.312;9.790;2024-03-06T04:52:15;101736.41;;;-0.26;73.55
39891;BME280;25564;53.312;9.790;2024-03-06T04:54:48;101733.88;;;-0.26;73.60
39891;BME280;25564;53.312;9.790;2024-03-06T04:57:22;101736.28;;;-0.22;74.04
39891;BME280;25564;53.312;9.790;2024-03-06T04:59:54;101752.41;;;-0.20;73.92
39891;BME280;25564;53.312;9.790;2024-03-06T05:02:27;101751.50;;;-0.17;74.27
39891;BME280;25564;53.312;9.790;2024-03-06T05:05:00;101762.56;;;-0.17;74.19
39891;BME280;25564;53.312;9.790;2024-03-06T05:07:49;101760.84;;;-0.16;74.23
39891;BME280;25564;53.312;9.790;2024-03-06T05:10:38;101765.09;;;-0.17;74.17
39891;BME280;25564;53.312;9.790;2024-03-06T05:13:28;101771.09;;;-0.18;73.67
39891;BME280;25564;53.312;9.790;2024-03-06T05:16:17;101776.16;;;-0.16;74.26
39891;BME280;25564;53.312;9.790;2024-03-06T05:19:06;101782.16;;;-0.19;74.23
39891;BME280;25564;53.312;9.790;2024-03-06T05:22:00;101788.94;;;-0.18;73.86
39891;BME280;25564;53.312;9.790;2024-03-06T05:24:49;101799.09;;;-0.16;73.75
39891;BME280;25564;53.312;9.790;2024-03-06T05:27:38;101798.22;;;-0.14;74.07
39891;BME280;25564;53.312;9.790;2024-03-06T05:30:27;101804.81;;;-0.03;74.34
39891;BME280;25564;53.312;9.790;2024-03-06T05:33:17;101801.25;;;0.05;74.46
39891;BME280;25564;53.312;9.790;2024-03-06T05:36:06;101803.63;;;0.13;74.31
39891;BME280;25564;53.312;9.790;2024-03-06T05:38:55;101808.59;;;0.19;74.28
39891;BME280;25564;53.312;9.790;2024-03-06T05:41:44;101815.31;;;0.23;74.48
39891;BME280;25564;53.312;9.790;2024-03-06T05:44:33;101808.56;;;0.22;74.18
39891;BME280;25564;53.312;9.790;2024-03-06T05:47:22;101821.25;;;0.23;73.87
39891;BME280;25564;53.312;9.790;2024-03-06T05:50:11;101826.31;;;0.25;73.94
39891;BME280;25564;53.312;9.790;2024-03-06T05:53:00;101829.75;;;0.24;73.72
39891;BME280;25564;53.312;9.790;2024-03-06T05:55:49;101838.28;;;0.23;74.50
39891;BME280;25564;53.312;9.790;2024-03-06T05:58:38;101833.31;;;0.17;73.93
39891;BME280;25564;53.312;9.790;2024-03-06T06:01:09;101836.78;;;0.13;74.46
39891;BME280;25564;53.312;9.790;2024-03-06T06:03:41;101842.78;;;0.10;74.41
39891;BME280;25564;53.312;9.790;2024-03-06T06:06:16;101844.59;;;0.05;74.50
39891;BME280;25564;53.312;9.790;2024-03-06T06:08:49;101854.00;;;0.02;74.20
39891;BME280;25564;53.312;9.790;2024-03-06T06:11:20;101848.97;;;-0.01;74.06
39891;BME280;25564;53.312;9.790;2024-03-06T06:13:52;101848.13;;;-0.02;74.35
39891;BME280;25564;53.312;9.790;2024-03-06T06:16:25;101852.38;;;-0.02;74.31
39891;BME280;25564;53.312;9.790;2024-03-06T06:18:58;101855.75;;;-0.00;74.48
39891;BME280;25564;53.312;9.790;2024-03-06T06:21:30;101855.63;;;0.06;74.69
39891;BME280;25564;53.312;9.790;2024-03-06T06:24:03;101859.00;;;0.08;74.62
39891;BME280;25564;53.312;9.790;2024-03-06T06:26:34;101870.81;;;0.13;74.99
39891;BME280;25564;53.312;9.790;2024-03-06T06:29:08;101870.63;;;0.21;74.48
39891;BME280;25564;53.312;9.790;2024-03-06T06:31:40;101882.41;;;0.28;74.53
39891;BME280;25564;53.312;9.790;2024-03-06T06:34:12;101879.66;;;0.38;74.52
39891;BME280;25564;53.312;9.790;2024-03-06T06:36:45;101881.09;;;0.50;74.73
39891;BME280;25564;53.312;9.790;2024-03-06T06:39:17;101884.31;;;0.59;74.34
39891;BME280;25564;53.312;9.790;2024-03-06T06:41:50;101884.06;;;0.71;74.53
39891;BME280;25564;53.312;9.790;2024-03-06T06:44:22;101883.97;;;0.76;74.06
39891;BME280;25564;53.312;9.790;2024-03-06T06:46:53;101888.91;;;0.84;74.45
39891;BME280;25564;53.312;9.790;2024-03-06T06:49:25;101891.31;;;0.91;74.41
39891;BME280;25564;53.312;9.790;2024-03-06T06:51:58;101894.53;;;0.99;74.35
39891;BME280;25564;53.312;9.790;2024-03-06T06:54:31;101897.78;;;1.04;74.42
39891;BME280;25564;53.312;9.790;2024-03-06T06:57:02;101907.88;;;1.12;74.17
39891;BME280;25564;53.312;9.790;2024-03-06T06:59:34;101916.16;;;1.21;73.86
39891;BME280;25564;53.312;9.790;2024-03-06T07:02:06;101915.16;;;1.28;73.94
39891;BME280;25564;53.312;9.790;2024-03-06T07:04:38;101922.63;;;1.37;74.25
39891;BME280;25564;53.312;9.790;2024-03-06T07:07:10;101913.91;;;1.44;74.27
39891;BME280;25564;53.312;9.790;2024-03-06T07:09:43;101908.56;;;1.53;74.61
39891;BME280;25564;53.312;9.790;2024-03-06T07:12:15;101922.06;;;1.59;74.11
39891;BME280;25564;53.312;9.790;2024-03-06T07:14:50;101915.06;;;1.67;73.89
39891;BME280;25564;53.312;9.790;2024-03-06T07:17:22;101926.75;;;1.77;73.83
39891;BME280;25564;53.312;9.790;2024-03-06T07:19:55;101924.00;;;1.84;74.22
39891;BME280;25564;53.312;9.790;2024-03-06T07:22:30;101922.06;;;1.94;74.25
39891;BME280;25564;53.312;9.790;2024-03-06T07:25:02;101930.38;;;2.00;73.92
39891;BME280;25564;53.312;9.790;2024-03-06T07:27:34;101937.03;;;2.07;74.21
39891;BME280;25564;53.312;9.790;2024-03-06T07:30:06;101934.31;;;2.15;73.83
39891;BME280;25564;53.312;9.790;2024-03-06T07:32:39;101941.72;;;2.24;74.03
39891;BME280;25564;53.312;9.790;2024-03-06T07:35:14;101942.31;;;2.33;74.46
39891;BME280;25564;53.312;9.790;2024-03-06T07:37:46;101948.03;;;2.43;74.48
39891;BME280;25564;53.312;9.790;2024-03-06T07:40:19;101947.78;;;2.52;74.39
39891;BME280;25564;53.312;9.790;2024-03-06T07:42:51;101945.13;;;2.55;74.01
39891;BME280;25564;53.312;9.790;2024-03-06T07:45:23;101944.25;;;2.56;74.08
39891;BME280;25564;53.312;9.790;2024-03-06T07:47:54;101954.31;;;2.62;73.75
39891;BME280;25564;53.312;9.790;2024-03-06T07:50:26;101955.72;;;2.72;73.53
39891;BME280;25564;53.312;9.790;2024-03-06T07:52:58;101956.34;;;2.80;74.42
39891;BME280;25564;53.312;9.790;2024-03-06T07:55:32;101949.34;;;2.87;74.13
39891;BME280;25564;53.312;9.790;2024-03-06T07:58:04;101957.75;;;2.90;73.68
39891;BME280;25564;53.312;9.790;2024-03-06T08:00:36;101964.41;;;2.97;73.75
39891;BME280;25564;53.312;9.790;2024-03-06T08:03:11;101965.00;;;3.05;74.52
39891;BME280;25564;53.312;9.790;2024-03-06T08:05:45;101970.00;;;3.10;73.64
39891;BME280;25564;53.312;9.790;2024-03-06T08:08:16;101965.47;;;3.18;73.48
39891;BME280;25564;53.312;9.790;2024-03-06T08:10:48;101970.47;;;3.23;73.52
39891;BME280;25564;53.312;9.790;2024-03-06T08:13:21;101978.03;;;3.27;73.77
39891;BME280;25564;53.312;9.790;2024-03-06T08:15:53;101977.91;;;3.32;73.77
39891;BME280;25564;53.312;9.790;2024-03-06T08:18:25;101965.00;;;3.35;73.47
39891;BME280;25564;53.312;9.790;2024-03-06T08:20:59;101978.34;;;3.46;73.51
39891;BME280;25564;53.312;9.790;2024-03-06T08:23:31;101974.66;;;3.54;74.04
39891;BME280;25564;53.312;9.790;2024-03-06T08:26:03;101979.72;;;3.56;73.43
39891;BME280;25564;53.312;9.790;2024-03-06T08:28:35;101984.00;;;3.55;73.22
39891;BME280;25564;53.312;9.790;2024-03-06T08:31:07;101984.56;;;3.65;73.54
39891;BME280;25564;53.312;9.790;2024-03-06T08:33:41;101986.75;;;3.77;73.81
39891;BME280;25564;53.312;9.790;2024-03-06T08:36:13;101994.22;;;3.84;73.53
39891;BME280;25564;53.312;9.790;2024-03-06T08:38:45;101996.53;;;3.92;73.22
39891;BME280;25564;53.312;9.790;2024-03-06T08:41:16;102008.00;;;4.07;72.97
39891;BME280;25564;53.312;9.790;2024-03-06T08:43:49;102008.44;;;4.19;73.42
39891;BME280;25564;53.312;9.790;2024-03-06T08:46:21;102008.53;;;4.16;72.52
39891;BME280;25564;53.312;9.790;2024-03-06T08:48:53;102013.78;;;4.13;72.81
39891;BME280;25564;53.312;9.790;2024-03-06T08:51:26;102014.47;;;4.18;73.18
39891;BME280;25564;53.312;9.790;2024-03-06T08:53:57;102016.00;;;4.24;72.97
39891;BME280;25564;53.312;9.790;2024-03-06T08:56:31;102016.63;;;4.30;72.81
39891;BME280;25564;53.312;9.790;2024-03-06T08:59:06;102014.94;;;4.29;73.01
39891;BME280;25564;53.312;9.790;2024-03-06T09:01:37;102017.44;;;4.31;72.25
39891;BME280;25564;53.312;9.790;2024-03-06T09:04:11;102022.28;;;4.40;72.45
39891;BME280;25564;53.312;9.790;2024-03-06T09:06:44;102019.66;;;4.41;72.25
39891;BME280;25564;53.312;9.790;2024-03-06T09:09:15;102029.91;;;4.43;72.20
39891;BME280;25564;53.312;9.790;2024-03-06T09:11:47;102036.50;;;4.50;72.39
39891;BME280;25564;53.312;9.790;2024-03-06T09:14:18;102033.41;;;4.65;72.65
39891;BME280;25564;53.312;9.790;2024-03-06T09:16:50;102037.09;;;4.81;72.48
39891;BME280;25564;53.312;9.790;2024-03-06T09:19:22;102033.25;;;4.93;72.60
39891;BME280;25564;53.312;9.790;2024-03-06T09:21:54;102039.63;;;5.06;71.95
39891;BME280;25564;53.312;9.790;2024-03-06T09:24:26;102041.22;;;5.10;71.53
39891;BME280;25564;53.312;9.790;2024-03-06T09:26:57;102044.50;;;5.13;71.40
39891;BME280;25564;53.312;9.790;2024-03-06T09:29:30;102037.63;;;5.14;71.85
39891;BME280;25564;53.312;9.790;2024-03-06T09:32:02;102044.19;;;5.21;71.33
39891;BME280;25564;53.312;9.790;2024-03-06T09:34:37;102039.03;;;5.22;71.21
39891;BME280;25564;53.312;9.790;2024-03-06T09:37:08;102044.66;;;5.32;71.39
39891;BME280;25564;53.312;9.790;2024-03-06T09:39:40;102048.53;;;5.42;70.73
39891;BME280;25564;53.312;9.790;2024-03-06T09:42:12;102044.59;;;5.55;70.92
39891;BME280;25564;53.312;9.790;2024-03-06T09:44:44;102049.41;;;5.64;70.37
39891;BME280;25564;53.312;9.790;2024-03-06T09:47:20;102037.00;;;5.74;70.17
39891;BME280;25564;53.312;9.790;2024-03-06T09:49:55;102036.69;;;5.83;69.96
39891;BME280;25564;53.312;9.790;2024-03-06T09:52:27;102042.09;;;5.97;70.12
39891;BME280;25564;53.312;9.790;2024-03-06T09:54:59;102046.72;;;6.10;69.45
39891;BME280;25564;53.312;9.790;2024-03-06T09:57:32;102057.06;;;6.09;69.41
39891;BME280;25564;53.312;9.790;2024-03-06T10:00:10;102052.38;;;6.18;69.21
39891;BME280;25564;53.312;9.790;2024-03-06T10:02:58;102063.09;;;6.29;68.72
39891;BME280;25564;53.312;9.790;2024-03-06T10:05:33;102056.50;;;6.43;68.68
39891;BME280;25564;53.312;9.790;2024-03-06T10:08:05;102053.22;;;6.59;68.40
39891;BME280;25564;53.312;9.790;2024-03-06T10:10:38;102061.22;;;6.73;68.10
39891;BME280;25564;53.312;9.790;2024-03-06T10:13:10;102065.53;;;6.73;67.78
39891;BME280;25564;53.312;9.790;2024-03-06T10:15:42;102069.56;;;6.78;67.78
39891;BME280;25564;53.312;9.790;2024-03-06T10:18:15;102060.69;;;6.85;67.15
39891;BME280;25564;53.312;9.790;2024-03-06T10:20:49;102066.41;;;6.92;67.12
39891;BME280;25564;53.312;9.790;2024-03-06T10:23:21;102077.88;;;6.85;67.07
39891;BME280;25564;53.312;9.790;2024-03-06T10:25:54;102064.09;;;6.86;66.46
39891;BME280;25564;53.312;9.790;2024-03-06T10:28:27;102072.53;;;6.89;66.61
39891;BME280;25564;53.312;9.790;2024-03-06T10:31:04;102065.28;;;6.97;66.35
39891;BME280;25564;53.312;9.790;2024-03-06T10:33:39;102069.50;;;7.00;66.20
39891;BME280;25564;53.312;9.790;2024-03-06T10:36:12;102059.53;;;7.11;65.77
39891;BME280;25564;53.312;9.790;2024-03-06T10:38:44;102063.78;;;7.12;65.60
39891;BME280;25564;53.312;9.790;2024-03-06T10:41:18;102065.19;;;7.19;65.23
39891;BME280;25564;53.312;9.790;2024-03-06T10:43:54;102069.50;;;7.37;65.31
39891;BME280;25564;53.312;9.790;2024-03-06T10:46:27;102072.16;;;7.54;65.06
39891;BME280;25564;53.312;9.790;2024-03-06T10:48:59;102067.38;;;7.65;64.37
39891;BME280;25564;53.312;9.790;2024-03-06T10:51:33;102074.63;;;7.76;64.57
39891;BME280;25564;53.312;9.790;2024-03-06T10:54:06;102069.47;;;7.93;64.16
39891;BME280;25564;53.312;9.790;2024-03-06T10:56:40;102064.53;;;8.06;64.02
39891;BME280;25564;53.312;9.790;2024-03-06T10:59:15;102067.75;;;8.11;63.62
39891;BME280;25564;53.312;9.790;2024-03-06T11:01:48;102067.06;;;8.07;63.21
39891;BME280;25564;53.312;9.790;2024-03-06T11:04:20;102078.75;;;8.14;63.30
39891;BME280;25564;53.312;9.790;2024-03-06T11:06:52;102068.81;;;8.07;63.35
39891;BME280;25564;53.312;9.790;2024-03-06T11:09:25;102070.00;;;8.00;62.92
39891;BME280;25564;53.312;9.790;2024-03-06T11:11:57;102074.28;;;8.01;63.05
39891;BME280;25564;53.312;9.790;2024-03-06T11:14:31;102069.19;;;8.16;63.10
39891;BME280;25564;53.312;9.790;2024-03-06T11:17:09;102075.09;;;8.18;62.29
39891;BME280;25564;53.312;9.790;2024-03-06T11:28:27;102073.00;;;8.09;62.21
39891;BME280;25564;53.312;9.790;2024-03-06T11:31:04;102074.50;;;8.13;62.20
39891;BME280;25564;53.312;9.790;2024-03-06T11:33:41;102066.75;;;8.13;61.47
39891;BME280;25564;53.312;9.790;2024-03-06T11:38:56;102079.00;;;8.27;61.67
39891;BME280;25564;53.312;9.790;2024-03-06T11:41:30;102082.81;;;8.20;61.68
39891;BME280;25564;53.312;9.790;2024-03-06T11:44:05;102077.44;;;8.06;61.77
39891;BME280;25564;53.312;9.790;2024-03-06T11:46:44;102082.31;;;7.95;61.85
39891;BME280;25564;53.312;9.790;2024-03-06T11:49:24;102083.97;;;7.96;61.66
39891;BME280;25564;53.312;9.790;2024-03-06T11:52:03;102086.44;;;7.99;61.49
39891;BME280;25564;53.312;9.790;2024-03-06T11:54:37;102082.91;;;8.00;61.38
39891;BME280;25564;53.312;9.790;2024-03-06T11:57:08;102079.91;;;8.09;61.03
39891;BME280;25564;53.312;9.790;2024-03-06T11:59:43;102084.56;;;8.19;60.94
39891;BME280;25564;53.312;9.790;2024-03-06T12:02:16;102072.31;;;8.23;60.42
39891;BME280;25564;53.312;9.790;2024-03-06T12:04:47;102080.69;;;8.28;60.26
39891;BME280;25564;53.312;9.790;2024-03-06T12:07:20;102083.59;;;8.39;60.19
39891;BME280;25564;53.312;9.790;2024-03-06T12:09:52;102088.28;;;8.48;60.22
39891;BME280;25564;53.312;9.790;2024-03-06T12:12:24;102087.69;;;8.43;59.97
39891;BME280;25564;53.312;9.790;2024-03-06T12:14:59;102086.91;;;8.58;59.85
39891;BME280;25564;53.312;9.790;2024-03-06T12:17:33;102081.75;;;8.58;59.68
39891;BME280;25564;53.312;9.790;2024-03-06T12:20:13;102080.06;;;8.57;59.38
39891;BME280;25564;53.312;9.790;2024-03-06T12:22:49;102081.88;;;8.55;59.26
39891;BME280;25564;53.312;9.790;2024-03-06T12:25:22;102083.31;;;8.60;59.23
39891;BME280;25564;53.312;9.790;2024-03-06T12:27:54;102080.19;;;8.71;59.49
39891;BME280;25564;53.312;9.790;2024-03-06T12:30:26;102086.72;;;8.78;59.17
39891;BME280;25564;53.312;9.790;2024-03-06T12:32:59;102091.44;;;8.87;59.02
39891;BME280;25564;53.312;9.790;2024-03-06T12:35:31;102085.44;;;9.02;58.47
39891;BME280;25564;53.312;9.790;2024-03-06T12:38:14;102076.91;;;9.17;58.06
39891;BME280;25564;53.312;9.790;2024-03-06T12:40:46;102082.31;;;9.13;58.22
39891;BME280;25564;53.312;9.790;2024-03-06T12:43:19;102088.63;;;9.24;58.01
39891;BME280;25564;53.312;9.790;2024-03-06T12:45:52;102085.28;;;9.38;58.16
39891;BME280;25564;53.312;9.790;2024-03-06T12:48:32;102090.06;;;9.45;58.29
39891;BME280;25564;53.312;9.790;2024-03-06T12:51:04;102093.41;;;9.48;57.79
39891;BME280;25564;53.312;9.790;2024-03-06T12:53:39;102091.56;;;9.50;57.79
39891;BME280;25564;53.312;9.790;2024-03-06T12:56:12;102081.53;;;9.28;57.71
39891;BME280;25564;53.312;9.790;2024-03-06T12:58:44;102092.66;;;9.13;57.35
39891;BME280;25564;53.312;9.790;2024-03-06T13:01:15;102086.97;;;9.06;57.16
39891;BME280;25564;53.312;9.790;2024-03-06T13:03:47;102073.88;;;9.09;57.18
39891;BME280;25564;53.312;9.790;2024-03-06T13:06:18;102087.56;;;9.11;56.84
39891;BME280;25564;53.312;9.790;2024-03-06T13:08:50;102088.50;;;9.10;56.80
39891;BME280;25564;53.312;9.790;2024-03-06T13:11:22;102088.50;;;9.10;56.93
39891;BME280;25564;53.312;9.790;2024-03-06T13:13:54;102090.63;;;9.02;56.87
39891;BME280;25564;53.312;9.790;2024-03-06T13:16:27;102078.44;;;9.04;56.68
39891;BME280;25564;53.312;9.790;2024-03-06T13:18:58;102083.63;;;9.04;57.01
39891;BME280;25564;53.312;9.790;2024-03-06T13:21:34;102087.81;;;9.07;56.58
39891;BME280;25564;53.312;9.790;2024-03-06T13:24:06;102084.69;;;9.00;56.02
39891;BME280;25564;53.312;9.790;2024-03-06T13:26:39;102093.53;;;8.96;56.48
39891;BME280;25564;53.312;9.790;2024-03-06T13:29:15;102087.69;;;8.93;56.24
39891;BME280;25564;53.312;9.790;2024-03-06T13:31:51;102094.16;;;9.01;55.94
39891;BME280;25564;53.312;9.790;2024-03-06T13:34:23;102083.13;;;8.98;55.79
39891;BME280;25564;53.312;9.790;2024-03-06T13:36:55;102090.38;;;8.91;55.71
39891;BME280;25564;53.312;9.790;2024-03-06T13:39:27;102079.81;;;8.79;56.15
39891;BME280;25564;53.312;9.790;2024-03-06T13:41:59;102085.91;;;8.60;56.08